createdAt,value
2022-09-23T00:02:10.945Z,9.50
2022-09-23T00:04:39.183Z,10.70
2022-09-23T00:07:07.485Z,9.40
2022-09-23T00:09:35.603Z,9.20
2022-09-23T00:12:08.661Z,8.90
2022-09-23T00:14:39.161Z,9.10
2022-09-23T00:17:07.407Z,8.90
2022-09-23T00:19:37.988Z,8.20
2022-09-23T00:22:07.379Z,8.50
2022-09-23T00:24:35.458Z,9.30
2022-09-23T00:27:03.938Z,9.70
2022-09-23T00:29:33.173Z,9.30
2022-09-23T00:32:01.517Z,9.90
2022-09-23T00:34:29.900Z,9.10
2022-09-23T00:36:57.967Z,8.70
2022-09-23T00:39:29.067Z,9.10
2022-09-23T00:41:57.195Z,9.30
2022-09-23T00:44:45.440Z,8.80
2022-09-23T00:47:21.092Z,9.50
2022-09-23T00:50:01.975Z,9.20
2022-09-23T00:52:32.299Z,9.20
2022-09-23T00:55:02.896Z,8.20
2022-09-23T00:57:35.204Z,8.90
2022-09-23T01:00:06.038Z,9.60
2022-09-23T01:02:34.718Z,10.80
2022-09-23T01:05:06.088Z,10.00
2022-09-23T01:07:34.949Z,8.70
2022-09-23T01:10:04.387Z,9.20
2022-09-23T01:12:37.968Z,9.50
2022-09-23T01:15:15.317Z,9.30
2022-09-23T01:18:00.249Z,9.30
2022-09-23T01:20:59.513Z,8.80
2022-09-23T01:24:06.046Z,9.60
2022-09-23T01:26:56.674Z,9.00
2022-09-23T01:29:49.800Z,8.30
2022-09-23T01:32:28.273Z,8.50
2022-09-23T01:35:14.923Z,8.60
2022-09-23T01:37:48.825Z,8.30
2022-09-23T01:40:51.449Z,9.00
2022-09-23T01:43:41.711Z,10.00
2022-09-23T01:46:18.123Z,8.80
2022-09-23T01:49:01.243Z,8.30
2022-09-23T01:51:37.790Z,9.00
2022-09-23T01:54:20.912Z,8.70
2022-09-23T01:57:05.738Z,8.20
2022-09-23T01:59:49.632Z,8.10
2022-09-23T02:02:33.710Z,8.10
2022-09-23T02:05:14.556Z,8.80
2022-09-23T02:08:01.475Z,9.30
2022-09-23T02:10:53.593Z,9.80
2022-09-23T02:13:47.693Z,9.30
2022-09-23T02:16:25.643Z,9.20
2022-09-23T02:18:58.494Z,9.60
2022-09-23T02:21:34.141Z,8.90
2022-09-23T02:24:29.656Z,9.20
2022-09-23T02:27:13.254Z,9.60
2022-09-23T02:30:27.286Z,9.40
2022-09-23T02:33:35.396Z,9.60
2022-09-23T02:36:22.386Z,9.50
2022-09-23T02:38:58.446Z,9.10
2022-09-23T02:41:56.384Z,8.10
2022-09-23T02:44:28.490Z,8.10
2022-09-23T02:46:56.980Z,9.30
2022-09-23T02:49:28.225Z,8.50
2022-09-23T02:52:00.189Z,8.50
2022-09-23T02:54:29.488Z,9.00
2022-09-23T02:57:01.279Z,8.50
2022-09-23T02:59:30.750Z,8.70
2022-09-23T03:02:17.512Z,8.70
2022-09-23T03:05:01.627Z,9.20
2022-09-23T03:08:04.406Z,9.30
2022-09-23T03:10:46.597Z,8.20
2022-09-23T03:13:29.557Z,8.60
2022-09-23T03:16:18.776Z,10.00
2022-09-23T03:18:58.048Z,9.90
2022-09-23T03:21:36.563Z,10.00
2022-09-23T03:24:09.391Z,9.30
2022-09-23T03:26:40.436Z,9.20
2022-09-23T03:29:11.442Z,9.40
2022-09-23T03:31:42.493Z,9.00
2022-09-23T03:34:20.286Z,9.40
2022-09-23T03:37:02.899Z,8.70
2022-09-23T03:39:42.138Z,8.90
2022-09-23T03:42:25.535Z,9.10
2022-09-23T03:44:57.633Z,9.00
2022-09-23T03:47:28.581Z,8.90
2022-09-23T03:49:59.827Z,9.30
2022-09-23T03:52:28.627Z,8.90
2022-09-23T03:54:57.936Z,9.20
2022-09-23T03:57:26.205Z,8.80
2022-09-23T03:59:54.305Z,10.00
2022-09-23T04:02:22.531Z,8.90
2022-09-23T04:04:50.877Z,9.30
2022-09-23T04:07:19.526Z,9.90
2022-09-23T04:09:48.006Z,9.50
2022-09-23T04:12:17.003Z,8.90
2022-09-23T04:14:45.897Z,8.00
2022-09-23T04:17:14.376Z,7.20
2022-09-23T04:19:42.566Z,6.50
2022-09-23T04:22:11.550Z,8.50
2022-09-23T04:24:40.143Z,8.20
2022-09-23T04:27:08.422Z,7.60
2022-09-23T04:29:37.105Z,8.20
2022-09-23T04:32:05.393Z,8.20
2022-09-23T04:34:34.101Z,7.60
2022-09-23T04:37:04.204Z,7.70
2022-09-23T04:39:32.383Z,7.20
2022-09-23T04:42:00.559Z,8.20
2022-09-23T04:44:30.978Z,7.50
2022-09-23T04:46:59.477Z,8.10
2022-09-23T04:49:27.624Z,8.30
2022-09-23T04:51:56.549Z,8.50
2022-09-23T04:54:24.924Z,7.90
2022-09-23T04:56:55.762Z,8.30
2022-09-23T04:59:25.174Z,8.40
2022-09-23T05:01:54.683Z,8.40
2022-09-23T05:04:23.054Z,8.20
2022-09-23T05:06:51.225Z,8.10
2022-09-23T05:09:19.607Z,8.70
2022-09-23T05:11:47.793Z,8.90
2022-09-23T05:14:19.084Z,8.80
2022-09-23T05:16:50.543Z,9.10
2022-09-23T05:19:19.307Z,9.20
2022-09-23T05:21:52.347Z,9.10
2022-09-23T05:24:21.791Z,8.80
2022-09-23T05:26:49.894Z,9.20
2022-09-23T05:29:18.239Z,8.90
2022-09-23T05:31:46.754Z,10.00
2022-09-23T05:34:14.997Z,9.10
2022-09-23T05:36:43.514Z,9.90
2022-09-23T05:39:11.654Z,10.00
2022-09-23T05:41:41.678Z,9.70
2022-09-23T05:44:11.599Z,9.60
2022-09-23T05:46:40.327Z,9.60
2022-09-23T05:49:08.928Z,9.60
2022-09-23T05:51:38.304Z,9.00
2022-09-23T05:54:08.862Z,9.20
2022-09-23T05:56:38.223Z,10.10
2022-09-23T05:59:07.060Z,9.40
2022-09-23T06:01:36.958Z,10.10
2022-09-23T06:04:06.859Z,9.60
2022-09-23T06:06:39.128Z,9.20
2022-09-23T06:09:13.655Z,9.70
2022-09-23T06:11:42.315Z,9.40
2022-09-23T06:16:57.631Z,9.30
2022-09-23T06:19:29.210Z,9.60
2022-09-23T06:22:01.269Z,9.80
2022-09-23T06:24:31.536Z,9.80
2022-09-23T06:27:01.983Z,8.70
2022-09-23T06:29:32.446Z,9.30
2022-09-23T06:32:01.308Z,8.80
2022-09-23T06:34:41.117Z,8.70
2022-09-23T06:37:20.216Z,8.60
2022-09-23T06:39:49.427Z,8.20
2022-09-23T06:42:18.099Z,7.40
2022-09-23T06:44:49.366Z,8.00
2022-09-23T06:47:18.043Z,7.90
2022-09-23T06:49:46.747Z,8.00
2022-09-23T06:52:16.165Z,8.00
2022-09-23T06:54:45.362Z,8.20
2022-09-23T06:57:14.645Z,8.10
2022-09-23T06:59:43.030Z,8.40
2022-09-23T07:02:12.543Z,8.30
2022-09-23T07:04:42.754Z,7.50
2022-09-23T07:07:11.782Z,7.40
2022-09-23T07:09:40.559Z,7.50
2022-09-23T07:12:08.932Z,7.40
2022-09-23T07:14:40.182Z,6.80
2022-09-23T07:17:08.865Z,5.60
2022-09-23T07:19:38.106Z,5.70
2022-09-23T07:22:06.965Z,5.20
2022-09-23T07:24:35.249Z,6.10
2022-09-23T07:27:06.652Z,5.30
2022-09-23T07:29:47.036Z,5.70
2022-09-23T07:32:22.288Z,4.70
2022-09-23T07:34:52.255Z,4.80
2022-09-23T07:37:22.182Z,5.30
2022-09-23T07:39:51.985Z,4.50
2022-09-23T07:42:21.064Z,4.70
2022-09-23T07:44:54.052Z,4.70
2022-09-23T07:47:23.876Z,5.30
2022-09-23T07:49:54.950Z,5.40
2022-09-23T07:52:24.948Z,4.90
2022-09-23T07:54:54.640Z,4.90
2022-09-23T07:57:24.686Z,6.00
2022-09-23T07:59:53.717Z,5.50
2022-09-23T08:02:22.276Z,6.50
2022-09-23T08:04:50.926Z,6.20
2022-09-23T08:07:19.819Z,6.00
2022-09-23T08:09:49.153Z,5.60
2022-09-23T08:12:20.267Z,5.10
2022-09-23T08:14:51.459Z,4.60
2022-09-23T08:17:20.794Z,4.20
2022-09-23T08:19:50.282Z,4.10
2022-09-23T08:22:20.449Z,4.40
2022-09-23T08:24:49.737Z,4.30
2022-09-23T08:27:19.757Z,4.00
2022-09-23T08:29:50.212Z,4.40
2022-09-23T08:32:18.837Z,3.40
2022-09-23T08:34:47.844Z,3.70
2022-09-23T08:37:18.332Z,3.40
2022-09-23T08:39:48.430Z,3.30
2022-09-23T08:42:30.240Z,3.20
2022-09-23T08:45:03.884Z,3.20
2022-09-23T08:47:35.601Z,3.20
2022-09-23T08:50:07.674Z,3.40
2022-09-23T08:52:50.483Z,3.30
2022-09-23T08:55:24.716Z,2.40
2022-09-23T08:58:26.210Z,2.60
2022-09-23T09:01:04.750Z,2.40
2022-09-23T09:03:57.964Z,3.00
2022-09-23T09:06:36.224Z,2.20
2022-09-23T09:09:23.932Z,2.20
2022-09-23T09:12:00.582Z,2.50
2022-09-23T09:15:07.813Z,2.20
2022-09-23T09:18:03.356Z,2.40
2022-09-23T09:20:55.229Z,2.00
2022-09-23T09:23:28.730Z,2.50
2022-09-23T09:26:01.954Z,2.20
2022-09-23T09:28:36.147Z,2.20
2022-09-23T09:31:07.762Z,2.50
2022-09-23T09:34:03.640Z,2.20
2022-09-23T09:36:36.533Z,2.00
2022-09-23T09:39:05.429Z,2.10
2022-09-23T09:41:34.113Z,1.90
2022-09-23T09:44:09.791Z,1.80
2022-09-23T09:46:55.571Z,2.10
2022-09-23T09:49:28.868Z,1.80
2022-09-23T09:52:23.647Z,1.80
2022-09-23T09:54:56.313Z,1.70
2022-09-23T09:57:35.389Z,1.80
2022-09-23T10:00:44.888Z,1.60
2022-09-23T10:03:13.536Z,1.90
2022-09-23T10:05:49.698Z,1.80
2022-09-23T10:08:36.001Z,1.10
2022-09-23T10:11:16.363Z,1.70
2022-09-23T10:14:06.968Z,1.40
2022-09-23T10:16:35.448Z,1.40
2022-09-23T10:19:11.718Z,1.40
2022-09-23T10:21:42.481Z,1.30
2022-09-23T10:24:23.039Z,1.30
2022-09-23T10:26:58.369Z,1.50
2022-09-23T10:29:40.117Z,1.40
2022-09-23T10:32:26.780Z,1.60
2022-09-23T10:35:09.090Z,1.20
2022-09-23T10:37:46.065Z,1.10
2022-09-23T10:40:48.563Z,1.60
2022-09-23T10:43:41.641Z,1.40
2022-09-23T10:46:38.599Z,1.70
2022-09-23T10:49:09.417Z,1.20
2022-09-23T10:52:00.728Z,1.30
2022-09-23T10:54:47.443Z,1.30
2022-09-23T10:57:40.101Z,1.30
2022-09-23T11:00:23.675Z,1.30
2022-09-23T11:03:23.008Z,1.50
2022-09-23T11:06:07.933Z,1.40
2022-09-23T11:09:04.334Z,1.60
2022-09-23T11:11:52.960Z,1.50
2022-09-23T11:14:23.965Z,1.40
2022-09-23T11:17:06.009Z,1.30
2022-09-23T11:20:00.577Z,1.50
2022-09-23T11:22:37.914Z,1.60
2022-09-23T11:25:17.981Z,1.30
2022-09-23T11:27:52.991Z,1.20
2022-09-23T11:30:22.753Z,1.70
2022-09-23T11:32:57.476Z,1.70
2022-09-23T11:35:37.178Z,1.00
2022-09-23T11:38:11.963Z,1.10
2022-09-23T11:40:46.840Z,1.10
2022-09-23T11:43:24.408Z,1.50
2022-09-23T11:45:59.018Z,1.60
2022-09-23T11:48:35.012Z,1.60
2022-09-23T11:51:12.800Z,1.40
2022-09-23T11:53:47.148Z,1.30
2022-09-23T11:56:35.431Z,1.20
2022-09-23T11:59:40.276Z,1.20
2022-09-23T12:02:31.240Z,1.20
2022-09-23T12:05:11.269Z,1.50
2022-09-23T12:07:54.926Z,1.30
2022-09-23T12:10:38.500Z,1.30
2022-09-23T12:13:30.408Z,1.40
2022-09-23T12:16:23.652Z,1.30
2022-09-23T12:19:14.973Z,1.00
2022-09-23T12:21:51.586Z,1.30
2022-09-23T12:24:45.068Z,1.10
2022-09-23T12:27:45.997Z,1.30
2022-09-23T12:30:17.600Z,1.60
2022-09-23T12:32:47.065Z,1.30
2022-09-23T12:35:26.980Z,1.10
2022-09-23T12:37:56.412Z,1.50
2022-09-23T12:40:35.059Z,1.40
2022-09-23T12:43:03.726Z,1.50
2022-09-23T12:45:32.913Z,1.30
2022-09-23T12:48:06.023Z,1.20
2022-09-23T12:51:03.179Z,1.30
2022-09-23T12:53:34.536Z,1.70
2022-09-23T12:56:16.815Z,1.40
2022-09-23T12:58:45.121Z,1.40
2022-09-23T13:01:21.519Z,1.30
2022-09-23T13:04:10.812Z,1.30
2022-09-23T13:06:53.678Z,1.10
2022-09-23T13:09:29.121Z,1.50
2022-09-23T13:12:13.485Z,1.70
2022-09-23T13:14:47.031Z,1.50
2022-09-23T13:17:31.252Z,1.70
2022-09-23T13:20:25.634Z,1.50
2022-09-23T13:22:54.039Z,1.60
2022-09-23T13:25:24.444Z,1.40
2022-09-23T13:28:00.603Z,1.70
2022-09-23T13:30:30.007Z,1.50
2022-09-23T13:33:19.272Z,1.70
2022-09-23T13:35:53.413Z,1.50
2022-09-23T13:38:26.339Z,1.50
2022-09-23T13:40:59.469Z,1.70
2022-09-23T13:43:40.838Z,1.30
2022-09-23T13:46:18.548Z,1.40
2022-09-23T13:48:50.755Z,1.30
2022-09-23T13:51:33.467Z,1.30
2022-09-23T13:54:04.631Z,1.50
2022-09-23T13:56:35.443Z,1.50
2022-09-23T13:59:41.764Z,1.50
2022-09-23T14:02:17.009Z,1.30
2022-09-23T14:04:46.476Z,1.20
2022-09-23T14:07:17.014Z,1.40
2022-09-23T14:09:48.662Z,1.20
2022-09-23T14:12:22.704Z,1.20
2022-09-23T14:14:52.698Z,1.30
2022-09-23T14:17:25.372Z,1.80
2022-09-23T14:19:54.590Z,1.40
2022-09-23T14:22:27.777Z,1.20
2022-09-23T14:24:57.701Z,1.50
2022-09-23T14:27:32.480Z,1.20
2022-09-23T14:30:03.067Z,1.20
2022-09-23T14:32:33.267Z,1.10
2022-09-23T14:35:04.649Z,1.40
2022-09-23T14:37:56.170Z,1.10
2022-09-23T14:40:52.300Z,1.40
2022-09-23T14:43:25.287Z,1.50
2022-09-23T14:45:58.872Z,1.30
2022-09-23T14:48:32.500Z,1.50
2022-09-23T14:51:13.241Z,1.40
2022-09-23T14:53:46.606Z,1.30
2022-09-23T14:56:23.171Z,1.20
2022-09-23T14:59:00.128Z,1.80
2022-09-23T15:01:41.863Z,1.20
2022-09-23T15:04:31.100Z,1.20
2022-09-23T15:07:17.190Z,1.20
2022-09-23T15:09:45.990Z,1.50
2022-09-23T15:12:14.268Z,1.40
2022-09-23T15:14:51.367Z,1.30
2022-09-23T15:17:32.811Z,1.60
2022-09-23T15:20:18.119Z,1.50
2022-09-23T15:22:49.679Z,1.50
2022-09-23T15:25:28.409Z,1.30
2022-09-23T15:28:00.267Z,1.80
2022-09-23T15:30:29.582Z,1.30
2022-09-23T15:32:58.464Z,1.50
2022-09-23T15:35:28.518Z,1.30
2022-09-23T15:38:00.673Z,1.40
2022-09-23T15:40:32.731Z,1.70
2022-09-23T15:43:11.171Z,2.00
2022-09-23T15:45:44.893Z,4.50
2022-09-23T15:48:19.598Z,5.00
2022-09-23T15:50:49.710Z,3.60
2022-09-23T15:53:24.235Z,2.30
2022-09-23T15:55:52.924Z,2.50
2022-09-23T15:58:22.556Z,2.00
2022-09-23T16:00:56.197Z,2.50
2022-09-23T16:03:28.865Z,2.40
2022-09-23T16:06:03.467Z,2.00
2022-09-23T16:08:33.339Z,2.10
2022-09-23T16:11:01.854Z,1.80
2022-09-23T16:13:30.177Z,1.90
2022-09-23T16:15:58.615Z,3.50
2022-09-23T16:18:26.888Z,3.10
2022-09-23T16:20:55.375Z,2.30
2022-09-23T16:23:35.792Z,2.30
2022-09-23T16:26:22.165Z,2.10
2022-09-23T16:28:53.827Z,2.50
2022-09-23T16:31:25.752Z,2.30
2022-09-23T16:33:54.264Z,2.80
2022-09-23T16:36:29.022Z,3.10
2022-09-23T16:38:59.413Z,2.70
2022-09-23T16:41:32.105Z,2.50
2022-09-23T16:44:04.668Z,2.30
2022-09-23T16:46:34.599Z,2.20
2022-09-23T16:49:04.253Z,2.50
2022-09-23T16:51:38.861Z,2.50
2022-09-23T16:54:12.444Z,2.20
2022-09-23T16:56:47.158Z,2.80
2022-09-23T16:59:17.132Z,2.30
2022-09-23T17:02:04.401Z,2.50
2022-09-23T17:04:33.117Z,2.60
2022-09-23T17:07:04.250Z,2.30
2022-09-23T17:09:32.394Z,2.60
2022-09-23T17:12:13.916Z,3.00
2022-09-23T17:14:44.315Z,4.50
2022-09-23T17:17:14.369Z,5.10
2022-09-23T17:19:43.271Z,6.10
2022-09-23T17:22:12.088Z,6.10
2022-09-23T17:24:41.175Z,5.30
2022-09-23T17:27:09.958Z,5.10
2022-09-23T17:29:39.088Z,4.70
2022-09-23T17:32:09.701Z,6.30
2022-09-23T17:34:38.176Z,5.50
2022-09-23T17:37:06.656Z,5.30
2022-09-23T17:39:35.135Z,5.20
2022-09-23T17:42:03.717Z,5.10
2022-09-23T17:44:33.539Z,5.90
2022-09-23T17:47:06.374Z,6.90
2022-09-23T17:49:35.534Z,6.70
2022-09-23T17:52:05.857Z,6.30
2022-09-23T17:54:36.581Z,6.00
2022-09-23T17:57:05.072Z,5.40
2022-09-23T17:59:33.562Z,4.10
2022-09-23T18:02:02.210Z,3.80
2022-09-23T18:04:31.246Z,3.80
2022-09-23T18:06:59.738Z,3.80
2022-09-23T18:09:30.649Z,4.30
2022-09-23T18:11:59.471Z,4.20
2022-09-23T18:14:29.177Z,3.70
2022-09-23T18:16:58.408Z,4.10
2022-09-23T18:19:29.570Z,4.20
2022-09-23T18:22:01.799Z,4.00
2022-09-23T18:24:33.801Z,4.50
2022-09-23T18:27:06.570Z,4.00
2022-09-23T18:29:36.089Z,4.60
2022-09-23T18:32:06.047Z,6.00
2022-09-23T18:34:38.778Z,6.90
2022-09-23T18:37:15.745Z,6.60
2022-09-23T18:39:50.353Z,9.70
2022-09-23T18:42:24.881Z,16.90
2022-09-23T18:44:58.483Z,16.00
2022-09-23T18:47:51.753Z,12.40
2022-09-23T18:50:42.776Z,10.20
2022-09-23T18:53:15.528Z,8.90
2022-09-23T18:55:51.378Z,9.40
2022-09-23T18:58:22.677Z,8.30
2022-09-23T19:00:52.320Z,7.80
2022-09-23T19:03:26.111Z,9.10
2022-09-23T19:06:10.931Z,10.10
2022-09-23T19:08:45.774Z,11.80
2022-09-23T19:11:16.458Z,9.20
2022-09-23T19:13:46.454Z,9.00
2022-09-23T19:16:16.827Z,8.80
2022-09-23T19:18:49.491Z,8.60
2022-09-23T19:21:21.646Z,7.80
2022-09-23T19:23:57.115Z,8.00
2022-09-23T19:26:33.163Z,7.90
2022-09-23T19:29:13.984Z,8.10
2022-09-23T19:31:44.097Z,7.80
2022-09-23T19:34:15.593Z,7.70
2022-09-23T19:36:46.201Z,7.50
2022-09-23T19:39:21.435Z,6.90
2022-09-23T19:41:56.522Z,7.30
2022-09-23T19:44:30.199Z,7.50
2022-09-23T19:47:02.122Z,7.10
2022-09-23T19:49:32.826Z,5.70
2022-09-23T19:52:04.279Z,6.60
2022-09-23T19:54:39.210Z,6.20
2022-09-23T19:57:10.411Z,6.50
2022-09-23T19:59:45.863Z,6.20
2022-09-23T20:02:19.409Z,5.40
2022-09-23T20:04:48.714Z,5.80
2022-09-23T20:07:21.418Z,5.50
2022-09-23T20:09:53.313Z,5.80
2022-09-23T20:12:28.900Z,5.40
2022-09-23T20:15:02.677Z,5.60
2022-09-23T20:17:33.064Z,6.10
2022-09-23T20:20:02.923Z,6.50
2022-09-23T20:22:35.985Z,7.40
2022-09-23T20:25:13.791Z,7.70
2022-09-23T20:27:53.618Z,7.70
2022-09-23T20:30:24.103Z,7.40
2022-09-23T20:32:59.134Z,6.80
2022-09-23T20:35:34.498Z,6.20
2022-09-23T20:38:08.248Z,5.40
2022-09-23T20:40:42.298Z,5.00
2022-09-23T20:43:16.687Z,5.60
2022-09-23T20:45:55.110Z,6.40
2022-09-23T20:48:26.287Z,9.70
2022-09-23T20:51:03.708Z,7.80
2022-09-23T20:53:32.812Z,7.20
2022-09-23T20:56:02.018Z,7.30
2022-09-23T20:58:36.610Z,9.50
2022-09-23T21:01:12.041Z,17.20
2022-09-23T21:03:44.083Z,15.70
2022-09-23T21:06:14.785Z,14.10
2022-09-23T21:08:46.675Z,11.30
2022-09-23T21:11:18.203Z,11.70
2022-09-23T21:13:48.743Z,11.20
2022-09-23T21:16:21.626Z,9.30
2022-09-23T21:18:52.365Z,8.10
2022-09-23T21:21:22.686Z,6.60
2022-09-23T21:23:51.392Z,5.10
2022-09-23T21:26:25.302Z,4.60
2022-09-23T21:29:01.258Z,5.60
2022-09-23T21:31:38.939Z,4.90
2022-09-23T21:34:11.471Z,4.70
2022-09-23T21:36:43.739Z,5.10
2022-09-23T21:39:15.471Z,5.10
2022-09-23T21:41:47.171Z,5.40
2022-09-23T21:44:17.723Z,5.50
2022-09-23T21:46:48.693Z,4.90
2022-09-23T21:49:17.492Z,5.30
2022-09-23T21:51:45.987Z,5.00
2022-09-23T21:54:17.029Z,5.20
2022-09-23T21:56:45.610Z,5.10
2022-09-23T21:59:14.087Z,5.10
2022-09-23T22:01:45.572Z,5.10
2022-09-23T22:04:18.388Z,4.90
2022-09-23T22:06:49.159Z,8.30
2022-09-23T22:09:20.324Z,5.00
2022-09-23T22:12:09.983Z,5.30
2022-09-23T22:14:39.818Z,4.80
2022-09-23T22:17:10.742Z,4.40
2022-09-23T22:19:45.970Z,4.70
2022-09-23T22:22:17.986Z,5.50
2022-09-23T22:24:48.429Z,5.70
2022-09-23T22:27:19.250Z,6.20
2022-09-23T22:30:06.575Z,6.50
2022-09-23T22:32:41.706Z,5.60
2022-09-23T22:35:20.299Z,5.80
2022-09-23T22:37:50.035Z,6.30
2022-09-23T22:40:18.852Z,5.50
2022-09-23T22:42:49.975Z,6.50
2022-09-23T22:45:18.589Z,5.60
2022-09-23T22:47:46.945Z,6.40
2022-09-23T22:50:18.600Z,5.80
2022-09-23T22:52:47.697Z,6.60
2022-09-23T22:55:16.110Z,9.60
2022-09-23T22:57:44.255Z,8.10
2022-09-23T23:00:12.937Z,6.60
2022-09-23T23:02:42.627Z,7.10
2022-09-23T23:05:11.670Z,6.80
2022-09-23T23:07:40.748Z,6.80
2022-09-23T23:10:10.509Z,7.20
2022-09-23T23:12:39.779Z,7.30
2022-09-23T23:15:11.959Z,7.60
2022-09-23T23:17:41.829Z,7.20
2022-09-23T23:20:10.854Z,7.40
2022-09-23T23:22:45.506Z,7.20
2022-09-23T23:25:14.068Z,7.70
2022-09-23T23:27:42.659Z,7.20
2022-09-23T23:30:11.656Z,6.80
2022-09-23T23:32:40.392Z,6.70
2022-09-23T23:35:12.025Z,6.90
2022-09-23T23:37:41.917Z,7.10
2022-09-23T23:40:10.934Z,7.80
2022-09-23T23:42:39.414Z,7.40
2022-09-23T23:45:08.568Z,7.20
2022-09-23T23:47:37.667Z,7.50
2022-09-23T23:50:06.592Z,6.90
2022-09-23T23:52:35.075Z,6.60
2022-09-23T23:55:03.865Z,6.70
2022-09-23T23:57:35.010Z,6.50
